createdAt,value
2023-07-21T00:01:04.988Z,7.40
2023-07-21T00:03:33.370Z,7.50
2023-07-21T00:06:01.200Z,7.20
2023-07-21T00:08:29.596Z,7.20
2023-07-21T00:10:58.079Z,7.60
2023-07-21T00:13:28.516Z,7.10
2023-07-21T00:15:56.199Z,7.80
2023-07-21T00:18:23.615Z,7.10
2023-07-21T00:20:53.764Z,6.60
2023-07-21T00:23:21.541Z,7.60
2023-07-21T00:25:48.743Z,8.00
2023-07-21T00:28:18.583Z,7.90
2023-07-21T00:30:47.651Z,7.70
2023-07-21T00:33:18.392Z,7.10
2023-07-21T00:35:45.681Z,6.20
2023-07-21T00:38:12.762Z,7.10
2023-07-21T00:40:39.778Z,7.00
2023-07-21T00:43:09.892Z,7.90
2023-07-21T00:45:40.437Z,7.00
2023-07-21T00:48:10.068Z,6.70
2023-07-21T00:50:46.459Z,6.80
2023-07-21T00:53:13.911Z,6.70
2023-07-21T00:55:42.819Z,6.80
2023-07-21T00:58:10.678Z,7.20
2023-07-21T01:00:39.411Z,7.10
2023-07-21T01:03:06.643Z,6.70
2023-07-21T01:05:35.115Z,6.10
2023-07-21T01:08:05.427Z,6.80
2023-07-21T01:10:34.211Z,6.10
2023-07-21T01:13:02.536Z,6.80
2023-07-21T01:15:29.686Z,6.00
2023-07-21T01:17:56.569Z,6.20
2023-07-21T01:20:24.454Z,6.10
2023-07-21T01:23:03.316Z,5.40
2023-07-21T01:25:31.965Z,6.50
2023-07-21T01:27:58.907Z,5.50
2023-07-21T01:30:26.072Z,6.20
2023-07-21T01:32:54.026Z,6.00
2023-07-21T01:35:22.837Z,5.50
2023-07-21T01:37:50.348Z,5.90
2023-07-21T01:40:17.485Z,5.60
2023-07-21T01:42:46.820Z,6.10
2023-07-21T01:45:14.029Z,6.00
2023-07-21T01:47:41.170Z,5.60
2023-07-21T01:50:10.428Z,5.80
2023-07-21T01:52:37.589Z,6.50
2023-07-21T01:55:10.525Z,6.40
2023-07-21T01:57:39.655Z,6.00
2023-07-21T02:00:14.104Z,6.10
2023-07-21T02:02:47.810Z,5.80
2023-07-21T02:05:19.613Z,5.60
2023-07-21T02:07:47.100Z,8.30
2023-07-21T02:10:14.262Z,6.10
2023-07-21T02:12:44.480Z,7.10
2023-07-21T02:17:45.897Z,6.30
2023-07-21T02:20:14.974Z,6.20
2023-07-21T02:22:44.020Z,6.60
2023-07-21T02:25:14.458Z,5.70
2023-07-21T02:27:42.459Z,6.10
2023-07-21T02:30:10.497Z,6.20
2023-07-21T02:32:37.859Z,5.90
2023-07-21T02:35:06.260Z,6.60
2023-07-21T02:37:33.489Z,6.30
2023-07-21T02:40:01.145Z,6.80
2023-07-21T02:42:28.709Z,5.40
2023-07-21T02:44:55.856Z,6.60
2023-07-21T02:47:23.639Z,6.00
2023-07-21T02:49:50.555Z,5.70
2023-07-21T02:52:17.620Z,6.80
2023-07-21T02:54:47.255Z,5.70
2023-07-21T02:57:14.192Z,6.90
2023-07-21T02:59:42.067Z,6.70
2023-07-21T03:02:09.520Z,5.80
2023-07-21T03:04:43.091Z,6.20
2023-07-21T03:07:12.223Z,6.00
2023-07-21T03:09:42.016Z,6.20
2023-07-21T03:12:18.276Z,7.40
2023-07-21T03:15:05.080Z,6.40
2023-07-21T03:17:43.283Z,6.70
2023-07-21T03:20:15.614Z,6.20
2023-07-21T03:22:44.201Z,6.80
2023-07-21T03:25:13.923Z,6.70
2023-07-21T03:27:41.520Z,7.30
2023-07-21T03:30:14.319Z,6.60
2023-07-21T03:32:47.385Z,6.40
2023-07-21T03:35:15.707Z,6.90
2023-07-21T03:37:43.879Z,6.40
2023-07-21T03:40:11.701Z,7.30
2023-07-21T03:42:39.829Z,6.90
2023-07-21T03:45:09.488Z,7.30
2023-07-21T03:47:36.924Z,6.70
2023-07-21T03:50:05.832Z,7.50
2023-07-21T03:52:33.594Z,6.00
2023-07-21T03:55:00.915Z,6.80
2023-07-21T03:57:28.215Z,8.10
2023-07-21T03:59:55.063Z,7.80
2023-07-21T04:02:22.074Z,7.60
2023-07-21T04:04:50.008Z,7.80
2023-07-21T04:07:17.454Z,8.60
2023-07-21T04:09:47.691Z,8.20
2023-07-21T04:12:15.362Z,7.80
2023-07-21T04:14:43.267Z,9.30
2023-07-21T04:17:12.407Z,9.50
2023-07-21T04:19:39.903Z,9.10
2023-07-21T04:22:07.709Z,9.20
2023-07-21T04:24:35.681Z,10.20
2023-07-21T04:27:03.049Z,10.50
2023-07-21T04:29:36.880Z,9.90
2023-07-21T04:32:05.959Z,10.00
2023-07-21T04:34:33.821Z,9.60
2023-07-21T04:37:01.202Z,10.60
2023-07-21T04:39:37.713Z,10.80
2023-07-21T04:42:06.504Z,10.50
2023-07-21T04:44:33.500Z,10.70
2023-07-21T04:47:00.635Z,12.00
2023-07-21T04:49:35.034Z,10.80
2023-07-21T04:52:04.636Z,12.10
2023-07-21T04:54:31.718Z,13.00
2023-07-21T04:56:58.656Z,12.90
2023-07-21T04:59:28.372Z,13.40
2023-07-21T05:01:55.785Z,15.10
2023-07-21T05:04:23.095Z,14.80
2023-07-21T05:06:54.758Z,13.90
2023-07-21T05:09:22.764Z,13.70
2023-07-21T05:11:50.126Z,14.40
2023-07-21T05:14:39.574Z,16.90
2023-07-21T05:17:12.000Z,16.90
2023-07-21T05:19:59.502Z,15.60
2023-07-21T05:22:38.535Z,18.10
2023-07-21T05:25:06.333Z,17.20
2023-07-21T05:27:35.516Z,18.30
2023-07-21T05:30:07.040Z,17.80
2023-07-21T05:32:36.448Z,18.60
2023-07-21T05:35:09.939Z,19.10
2023-07-21T05:37:38.833Z,18.00
2023-07-21T05:40:07.955Z,19.00
2023-07-21T05:42:35.544Z,19.10
2023-07-21T05:45:05.995Z,20.90
2023-07-21T05:47:33.353Z,21.80
2023-07-21T05:50:01.386Z,21.90
2023-07-21T05:52:29.922Z,22.00
2023-07-21T05:54:57.284Z,21.20
2023-07-21T05:57:27.921Z,22.00
2023-07-21T05:59:56.702Z,22.10
2023-07-21T06:02:24.054Z,24.30
2023-07-21T06:04:57.369Z,26.30
2023-07-21T06:07:47.260Z,27.30
2023-07-21T06:10:20.343Z,28.50
2023-07-21T06:12:56.744Z,27.20
2023-07-21T06:15:44.459Z,27.60
2023-07-21T06:18:25.805Z,30.00
2023-07-21T06:20:53.598Z,31.10
2023-07-21T06:23:20.922Z,30.00
2023-07-21T06:25:48.802Z,31.70
2023-07-21T06:28:17.614Z,31.90
2023-07-21T06:30:45.308Z,30.90
2023-07-21T06:33:20.797Z,29.20
2023-07-21T06:35:54.907Z,31.30
2023-07-21T06:38:48.028Z,32.50
2023-07-21T06:41:26.623Z,31.30
2023-07-21T06:44:13.758Z,32.60
2023-07-21T06:47:02.974Z,32.40
2023-07-21T06:49:39.109Z,31.40
2023-07-21T06:52:16.074Z,30.60
2023-07-21T06:54:43.173Z,32.60
2023-07-21T06:57:10.930Z,33.50
2023-07-21T06:59:39.146Z,33.60
2023-07-21T07:02:06.845Z,32.30
2023-07-21T07:04:34.426Z,31.40
2023-07-21T07:07:01.536Z,32.10
2023-07-21T07:09:29.091Z,26.20
2023-07-21T07:11:57.460Z,27.80
2023-07-21T07:14:26.349Z,637.60
2023-07-21T07:16:53.692Z,939.90
2023-07-21T07:19:20.730Z,947.50
2023-07-21T07:21:50.017Z,958.10
2023-07-21T07:24:17.102Z,924.50
2023-07-21T07:26:44.097Z,866.60
2023-07-21T07:29:11.112Z,874.30
2023-07-21T07:31:38.523Z,905.90
2023-07-21T07:34:05.526Z,986.30
2023-07-21T07:36:32.493Z,898.30
2023-07-21T07:38:59.441Z,914.60
2023-07-21T07:41:26.811Z,894.10
2023-07-21T07:43:54.057Z,946.90
2023-07-21T07:46:21.014Z,829.10
2023-07-21T07:48:48.663Z,814.90
2023-07-21T07:51:15.657Z,781.30
2023-07-21T07:53:44.575Z,786.40
2023-07-21T07:56:15.744Z,741.40
2023-07-21T07:58:42.895Z,807.30
2023-07-21T08:01:13.886Z,753.90
2023-07-21T08:03:44.881Z,788.80
2023-07-21T08:06:12.783Z,702.20
2023-07-21T08:08:42.857Z,767.10
2023-07-21T08:11:09.960Z,797.80
2023-07-21T08:13:39.206Z,730.50
2023-07-21T08:16:10.422Z,742.10
2023-07-21T08:18:37.396Z,699.20
2023-07-21T08:21:21.488Z,728.60
2023-07-21T08:23:50.126Z,749.90
2023-07-21T08:26:18.199Z,767.60
2023-07-21T08:28:45.168Z,684.60
2023-07-21T08:31:12.860Z,738.30
2023-07-21T08:33:40.582Z,742.40
2023-07-21T08:36:07.414Z,748.70
2023-07-21T08:38:35.589Z,710.20
2023-07-21T08:41:07.264Z,640.50
2023-07-21T08:43:35.434Z,626.90
2023-07-21T08:46:04.146Z,744.00
2023-07-21T08:48:31.704Z,686.20
2023-07-21T08:50:58.580Z,702.00
2023-07-21T08:53:26.233Z,715.70
2023-07-21T08:56:00.366Z,711.60
2023-07-21T08:58:28.113Z,717.60
2023-07-21T09:00:57.134Z,694.90
2023-07-21T09:03:29.243Z,635.80
2023-07-21T09:05:58.462Z,704.70
2023-07-21T09:08:30.619Z,594.80
2023-07-21T09:11:01.551Z,649.00
2023-07-21T09:13:29.107Z,640.10
2023-07-21T09:15:57.662Z,637.50
2023-07-21T09:18:29.288Z,663.80
2023-07-21T09:20:56.768Z,738.20
2023-07-21T09:23:24.638Z,710.90
2023-07-21T09:25:53.944Z,723.50
2023-07-21T09:28:22.688Z,627.40
2023-07-21T09:30:52.063Z,649.70
2023-07-21T09:33:24.423Z,658.80
2023-07-21T09:36:03.283Z,632.10
2023-07-21T09:38:30.582Z,679.50
2023-07-21T09:41:05.120Z,668.20
2023-07-21T09:43:32.575Z,742.80
2023-07-21T09:46:13.498Z,677.00
2023-07-21T09:48:45.393Z,679.90
2023-07-21T09:51:12.625Z,694.70
2023-07-21T09:53:46.081Z,730.30
2023-07-21T09:56:14.422Z,768.50
2023-07-21T09:58:58.059Z,688.70
2023-07-21T10:01:25.743Z,623.60
2023-07-21T10:03:53.333Z,658.40
2023-07-21T10:06:23.708Z,683.90
2023-07-21T10:08:51.471Z,632.30
2023-07-21T10:11:18.519Z,715.70
2023-07-21T10:13:48.196Z,688.40
2023-07-21T10:16:15.486Z,611.90
2023-07-21T10:19:17.733Z,651.40
2023-07-21T10:21:49.027Z,668.60
2023-07-21T10:24:29.250Z,668.20
2023-07-21T10:26:57.043Z,674.10
2023-07-21T10:29:23.949Z,671.10
2023-07-21T10:31:55.008Z,663.80
2023-07-21T10:34:45.201Z,668.20
2023-07-21T10:37:12.148Z,622.20
2023-07-21T10:39:43.432Z,679.40
2023-07-21T10:42:11.425Z,667.40
2023-07-21T10:44:40.801Z,615.20
2023-07-21T10:47:21.439Z,556.40
2023-07-21T10:49:49.757Z,625.80
2023-07-21T10:52:16.661Z,631.30
2023-07-21T10:54:43.394Z,676.60
2023-07-21T10:57:10.596Z,683.80
2023-07-21T10:59:43.735Z,595.40
2023-07-21T11:02:11.839Z,552.50
2023-07-21T11:04:41.270Z,558.60
2023-07-21T11:07:08.733Z,621.00
2023-07-21T11:09:37.824Z,569.10
2023-07-21T11:12:05.469Z,537.10
2023-07-21T11:14:33.195Z,621.00
2023-07-21T11:17:02.081Z,572.80
2023-07-21T11:19:34.414Z,560.10
2023-07-21T11:22:02.265Z,616.30
2023-07-21T11:24:30.310Z,661.80
2023-07-21T11:27:05.517Z,565.10
2023-07-21T11:29:43.935Z,659.90
2023-07-21T11:32:22.789Z,631.30
2023-07-21T11:34:57.020Z,617.50
2023-07-21T11:37:24.086Z,633.70
2023-07-21T11:39:55.502Z,628.10
2023-07-21T11:42:22.373Z,600.00
2023-07-21T11:44:49.274Z,656.20
2023-07-21T11:47:17.142Z,653.90
2023-07-21T11:49:46.270Z,640.70
2023-07-21T11:52:24.882Z,593.90
2023-07-21T11:54:52.650Z,556.00
2023-07-21T11:57:20.628Z,667.40
2023-07-21T11:59:47.944Z,676.60
2023-07-21T12:02:15.584Z,657.90
2023-07-21T12:04:43.370Z,587.80
2023-07-21T12:07:10.468Z,542.30
2023-07-21T12:09:39.106Z,599.30
2023-07-21T12:12:08.126Z,596.10
2023-07-21T12:14:35.247Z,657.50
2023-07-21T12:17:02.195Z,601.80
2023-07-21T12:19:29.449Z,511.20
2023-07-21T12:21:56.791Z,656.80
2023-07-21T12:24:24.145Z,570.10
2023-07-21T12:26:51.099Z,724.70
2023-07-21T12:29:29.224Z,631.60
2023-07-21T12:32:06.226Z,620.90
2023-07-21T12:34:33.520Z,645.30
2023-07-21T12:37:00.839Z,631.50
2023-07-21T12:39:27.769Z,636.30
2023-07-21T12:41:57.353Z,682.00
2023-07-21T12:44:25.106Z,662.60
2023-07-21T12:46:52.425Z,584.90
2023-07-21T12:49:19.656Z,637.70
2023-07-21T12:51:46.950Z,641.30
2023-07-21T12:54:13.981Z,640.40
2023-07-21T12:56:41.108Z,604.40
2023-07-21T12:59:07.947Z,623.00
2023-07-21T13:01:35.243Z,730.90
2023-07-21T13:04:02.502Z,663.90
2023-07-21T13:06:31.836Z,717.40
2023-07-21T13:09:01.391Z,661.10
2023-07-21T13:11:28.882Z,686.90
2023-07-21T13:13:55.830Z,618.20
2023-07-21T13:16:22.943Z,652.70
2023-07-21T13:18:50.122Z,721.80
2023-07-21T13:21:17.278Z,758.90
2023-07-21T13:23:44.538Z,728.10
2023-07-21T13:26:11.473Z,732.30
2023-07-21T13:28:38.318Z,745.10
2023-07-21T13:31:05.226Z,748.40
2023-07-21T13:33:32.257Z,737.80
2023-07-21T13:35:59.383Z,791.20
2023-07-21T13:38:28.466Z,728.10
2023-07-21T13:40:55.807Z,807.60
2023-07-21T13:43:22.725Z,789.80
2023-07-21T13:45:49.728Z,758.50
2023-07-21T13:48:16.753Z,793.90
2023-07-21T13:50:43.712Z,715.10
2023-07-21T13:53:10.972Z,812.90
2023-07-21T13:55:37.955Z,846.80
2023-07-21T13:58:04.867Z,703.40
2023-07-21T14:00:33.420Z,791.80
2023-07-21T14:03:00.637Z,699.70
2023-07-21T14:05:27.815Z,748.30
2023-07-21T14:07:55.786Z,802.50
2023-07-21T14:10:22.734Z,835.60
2023-07-21T14:12:49.900Z,766.70
2023-07-21T14:15:17.770Z,792.80
2023-07-21T14:17:45.975Z,833.10
2023-07-21T14:20:17.476Z,782.00
2023-07-21T14:22:44.469Z,748.70
2023-07-21T14:25:11.932Z,810.20
2023-07-21T14:27:41.464Z,812.10
2023-07-21T14:30:10.672Z,704.60
2023-07-21T14:32:38.069Z,847.70
2023-07-21T14:35:05.952Z,887.30
2023-07-21T14:37:33.120Z,788.80
2023-07-21T14:40:00.427Z,858.40
2023-07-21T14:42:27.663Z,817.10
2023-07-21T14:44:54.713Z,903.00
2023-07-21T14:47:21.642Z,881.00
2023-07-21T14:49:48.538Z,872.10
2023-07-21T14:52:15.470Z,851.40
2023-07-21T14:54:42.424Z,875.70
2023-07-21T14:57:11.731Z,840.80
2023-07-21T14:59:38.580Z,870.60
2023-07-21T15:02:06.012Z,855.50
2023-07-21T15:04:33.602Z,840.50
2023-07-21T15:07:01.548Z,923.40
2023-07-21T15:09:29.344Z,856.70
2023-07-21T15:11:56.454Z,784.20
2023-07-21T15:14:23.873Z,877.50
2023-07-21T15:16:52.707Z,881.80
2023-07-21T15:19:20.427Z,842.20
2023-07-21T15:21:47.530Z,964.60
2023-07-21T15:24:14.558Z,865.40
2023-07-21T15:26:41.601Z,702.70
2023-07-21T15:29:09.110Z,944.70
2023-07-21T15:31:36.895Z,915.70
2023-07-21T15:34:03.835Z,950.70
2023-07-21T15:36:30.815Z,923.10
2023-07-21T15:38:58.272Z,874.70
2023-07-21T15:41:25.382Z,916.10
2023-07-21T15:43:52.882Z,850.80
2023-07-21T15:46:20.168Z,900.30
2023-07-21T15:48:47.183Z,941.20
2023-07-21T15:51:15.484Z,886.50
2023-07-21T15:53:42.312Z,909.90
2023-07-21T15:56:09.258Z,862.10
2023-07-21T15:58:36.401Z,935.40
2023-07-21T16:01:03.342Z,963.00
2023-07-21T16:03:30.853Z,840.40
2023-07-21T16:05:58.691Z,879.20
2023-07-21T16:08:26.178Z,888.60
2023-07-21T16:10:53.175Z,703.80
2023-07-21T16:13:21.316Z,854.40
2023-07-21T16:15:49.579Z,937.50
2023-07-21T16:18:16.510Z,892.50
2023-07-21T16:20:43.537Z,820.40
2023-07-21T16:23:13.264Z,924.20
2023-07-21T16:25:40.590Z,890.20
2023-07-21T16:28:07.536Z,775.70
2023-07-21T16:30:34.364Z,921.20
2023-07-21T16:33:01.546Z,715.30
2023-07-21T16:35:28.894Z,841.40
2023-07-21T16:37:55.817Z,830.80
2023-07-21T16:40:22.976Z,817.70
2023-07-21T16:42:49.921Z,864.20
2023-07-21T16:45:18.232Z,837.40
2023-07-21T16:47:45.230Z,864.80
2023-07-21T16:50:12.701Z,787.80
2023-07-21T16:52:40.052Z,781.50
2023-07-21T16:55:07.724Z,716.60
2023-07-21T16:57:34.794Z,792.80
2023-07-21T17:00:11.668Z,892.90
2023-07-21T17:02:41.233Z,630.30
2023-07-21T17:05:20.472Z,691.00
2023-07-21T17:07:52.517Z,549.70
2023-07-21T17:10:19.796Z,881.90
2023-07-21T17:12:48.583Z,791.50
2023-07-21T17:15:15.658Z,772.70
2023-07-21T17:17:42.664Z,662.80
2023-07-21T17:20:13.588Z,697.30
2023-07-21T17:22:45.363Z,645.20
2023-07-21T17:25:12.514Z,672.00
2023-07-21T17:27:40.035Z,436.50
2023-07-21T17:30:08.010Z,718.30
2023-07-21T17:32:35.151Z,690.50
2023-07-21T17:35:02.808Z,668.10
2023-07-21T17:37:30.234Z,492.30
2023-07-21T17:39:57.589Z,669.50
2023-07-21T17:42:24.647Z,727.90
2023-07-21T17:44:51.705Z,760.60
2023-07-21T17:47:18.729Z,306.40
2023-07-21T17:49:45.635Z,337.30
2023-07-21T17:52:12.763Z,481.20
2023-07-21T17:54:40.019Z,494.00
2023-07-21T17:57:07.457Z,401.20
2023-07-21T17:59:34.481Z,279.50
2023-07-21T18:02:01.524Z,446.70
2023-07-21T18:04:28.688Z,523.60
2023-07-21T18:06:55.737Z,178.40
2023-07-21T18:09:24.586Z,239.00
2023-07-21T18:11:53.199Z,558.80
2023-07-21T18:14:23.582Z,381.90
2023-07-21T18:16:50.491Z,488.20
2023-07-21T18:19:19.023Z,407.10
2023-07-21T18:21:46.063Z,507.40
2023-07-21T18:24:12.985Z,459.40
2023-07-21T18:26:40.257Z,183.60
2023-07-21T18:29:07.399Z,197.60
2023-07-21T18:31:34.571Z,423.50
2023-07-21T18:34:01.573Z,504.40
2023-07-21T18:36:28.703Z,366.30
2023-07-21T18:38:56.568Z,372.50
2023-07-21T18:41:23.752Z,58.70
2023-07-21T18:43:51.498Z,57.90
2023-07-21T18:46:20.481Z,217.60
2023-07-21T18:48:47.616Z,320.00
2023-07-21T18:51:14.869Z,320.80
2023-07-21T18:53:45.048Z,381.70
2023-07-21T18:56:12.267Z,309.20
2023-07-21T18:58:39.217Z,22.40
2023-07-21T19:01:06.175Z,38.50
2023-07-21T19:03:33.839Z,189.30
2023-07-21T19:06:00.856Z,124.90
2023-07-21T19:08:28.093Z,268.80
2023-07-21T19:10:55.043Z,154.90
2023-07-21T19:13:21.997Z,25.10
2023-07-21T19:15:49.144Z,10.40
2023-07-21T19:18:16.255Z,36.50
2023-07-21T19:20:43.268Z,97.20
2023-07-21T19:23:10.254Z,84.20
2023-07-21T19:25:39.539Z,132.40
2023-07-21T19:28:06.738Z,4.30
2023-07-21T19:30:34.303Z,7.60
2023-07-21T19:33:01.332Z,54.30
2023-07-21T19:35:28.486Z,95.90
2023-07-21T19:37:55.943Z,47.00
2023-07-21T19:40:22.990Z,47.60
2023-07-21T19:42:49.941Z,4.30
2023-07-21T19:45:16.897Z,6.60
2023-07-21T19:47:44.004Z,3.60
2023-07-21T19:50:16.955Z,6.40
2023-07-21T19:52:44.300Z,3.70
2023-07-21T19:55:12.162Z,3.70
2023-07-21T19:57:39.389Z,5.20
2023-07-21T20:00:07.406Z,3.70
2023-07-21T20:02:36.130Z,3.00
2023-07-21T20:05:03.271Z,3.60
2023-07-21T20:07:30.266Z,13.70
2023-07-21T20:09:57.213Z,4.70
2023-07-21T20:12:24.271Z,3.00
2023-07-21T20:14:51.326Z,2.80
2023-07-21T20:17:19.751Z,2.70
2023-07-21T20:19:48.969Z,3.70
2023-07-21T20:22:18.144Z,16.40
2023-07-21T20:24:45.353Z,3.10
2023-07-21T20:27:12.974Z,2.90
2023-07-21T20:29:40.030Z,2.90
2023-07-21T20:32:07.933Z,3.00
2023-07-21T20:34:35.061Z,4.50
2023-07-21T20:37:02.660Z,4.20
2023-07-21T20:39:29.967Z,5.00
2023-07-21T20:41:57.020Z,3.10
2023-07-21T20:44:24.222Z,3.10
2023-07-21T20:46:51.956Z,2.80
2023-07-21T20:49:18.999Z,2.80
2023-07-21T20:51:46.467Z,5.20
2023-07-21T20:54:13.374Z,3.00
2023-07-21T20:56:41.033Z,32.90
2023-07-21T20:59:08.050Z,3.00
2023-07-21T21:01:54.062Z,3.30
2023-07-21T21:04:21.081Z,3.00
2023-07-21T21:06:49.014Z,2.40
2023-07-21T21:09:16.123Z,3.00
2023-07-21T21:11:43.212Z,2.70
2023-07-21T21:14:10.259Z,2.80
2023-07-21T21:16:37.617Z,2.90
2023-07-21T21:19:04.648Z,3.00
2023-07-21T21:21:32.202Z,2.70
2023-07-21T21:23:59.151Z,2.90
2023-07-21T21:26:26.389Z,3.00
2023-07-21T21:28:53.883Z,3.10
2023-07-21T21:31:21.042Z,3.00
2023-07-21T21:33:48.036Z,3.30
2023-07-21T21:36:15.284Z,2.90
2023-07-21T21:38:43.431Z,2.90
2023-07-21T21:41:10.314Z,3.40
2023-07-21T21:43:37.333Z,2.50
2023-07-21T21:46:05.437Z,2.60
2023-07-21T21:48:32.462Z,2.90
2023-07-21T21:50:59.519Z,2.80
2023-07-21T21:53:26.895Z,2.60
2023-07-21T21:55:53.745Z,2.80
2023-07-21T21:58:21.606Z,2.60
2023-07-21T22:00:49.128Z,3.50
2023-07-21T22:03:16.311Z,2.50
2023-07-21T22:05:47.448Z,3.00
2023-07-21T22:08:14.518Z,2.70
2023-07-21T22:10:41.502Z,2.60
2023-07-21T22:13:08.590Z,2.60
2023-07-21T22:15:35.628Z,3.00
2023-07-21T22:18:02.596Z,3.10
2023-07-21T22:20:29.630Z,3.30
2023-07-21T22:22:58.001Z,3.20
2023-07-21T22:25:25.052Z,3.40
2023-07-21T22:27:51.965Z,3.20
2023-07-21T22:30:18.878Z,3.50
2023-07-21T22:32:45.931Z,3.20
2023-07-21T22:35:12.937Z,3.00
2023-07-21T22:37:40.489Z,3.40
2023-07-21T22:40:08.260Z,3.40
2023-07-21T22:42:36.063Z,3.70
2023-07-21T22:45:03.409Z,3.40
2023-07-21T22:47:30.664Z,3.20
2023-07-21T22:49:57.519Z,3.20
2023-07-21T22:52:24.462Z,3.20
2023-07-21T22:54:52.900Z,3.70
2023-07-21T22:57:20.219Z,7.40
2023-07-21T22:59:47.404Z,8.20
2023-07-21T23:02:14.357Z,7.60
2023-07-21T23:04:41.534Z,8.00
2023-07-21T23:07:08.854Z,5.70
2023-07-21T23:09:35.694Z,4.50
2023-07-21T23:12:03.054Z,4.60
2023-07-21T23:14:30.715Z,4.50
2023-07-21T23:16:57.768Z,4.70
2023-07-21T23:19:24.836Z,4.70
2023-07-21T23:21:53.415Z,4.30
2023-07-21T23:24:20.567Z,4.20
2023-07-21T23:26:47.624Z,3.90
2023-07-21T23:29:15.604Z,3.60
2023-07-21T23:31:42.861Z,3.70
2023-07-21T23:34:10.483Z,4.30
2023-07-21T23:36:37.627Z,3.50
2023-07-21T23:39:07.619Z,3.20
2023-07-21T23:41:35.567Z,3.20
2023-07-21T23:44:02.567Z,3.70
2023-07-21T23:46:29.930Z,3.90
2023-07-21T23:48:57.265Z,3.90
2023-07-21T23:51:24.126Z,4.00
2023-07-21T23:53:51.159Z,4.00
2023-07-21T23:56:17.962Z,4.40
2023-07-21T23:58:45.082Z,4.20
